sensor_id;sensor_type;location;lat;lon;timestamp;P1;durP1;ratioP1;P2;durP2;ratioP2
18503;SDS011;9381;54.244;10.074;2022-11-04T00:02:28;9.07;;;4.30;;
18503;SDS011;9381;54.244;10.074;2022-11-04T00:07:28;7.60;;;4.70;;
18503;SDS011;9381;54.244;10.074;2022-11-04T00:12:47;8.87;;;4.80;;
18503;SDS011;9381;54.244;10.074;2022-11-04T00:17:47;8.53;;;4.33;;
18503;SDS011;9381;54.244;10.074;2022-11-04T00:22:47;7.22;;;4.68;;
18503;SDS011;9381;54.244;10.074;2022-11-04T00:28:16;8.40;;;4.87;;
18503;SDS011;9381;54.244;10.074;2022-11-04T00:33:36;8.20;;;5.03;;
18503;SDS011;9381;54.244;10.074;2022-11-04T00:38:36;6.72;;;4.50;;
18503;SDS011;9381;54.244;10.074;2022-11-04T00:43:36;9.77;;;4.83;;
18503;SDS011;9381;54.244;10.074;2022-11-04T00:48:37;8.80;;;4.63;;
18503;SDS011;9381;54.244;10.074;2022-11-04T00:53:37;9.73;;;4.78;;
18503;SDS011;9381;54.244;10.074;2022-11-04T00:58:37;11.45;;;4.57;;
18503;SDS011;9381;54.244;10.074;2022-11-04T01:03:37;9.60;;;5.17;;
18503;SDS011;9381;54.244;10.074;2022-11-04T01:08:38;8.90;;;4.90;;
18503;SDS011;9381;54.244;10.074;2022-11-04T01:13:39;8.30;;;4.77;;
18503;SDS011;9381;54.244;10.074;2022-11-04T01:18:39;9.50;;;4.90;;
18503;SDS011;9381;54.244;10.074;2022-11-04T01:23:40;7.43;;;5.13;;
18503;SDS011;9381;54.244;10.074;2022-11-04T01:28:42;9.13;;;5.97;;
18503;SDS011;9381;54.244;10.074;2022-11-04T01:33:43;9.67;;;5.27;;
18503;SDS011;9381;54.244;10.074;2022-11-04T01:38:44;13.80;;;5.90;;
18503;SDS011;9381;54.244;10.074;2022-11-04T01:43:47;9.37;;;5.53;;
18503;SDS011;9381;54.244;10.074;2022-11-04T01:48:49;8.73;;;5.40;;
18503;SDS011;9381;54.244;10.074;2022-11-04T01:53:51;8.67;;;4.97;;
18503;SDS011;9381;54.244;10.074;2022-11-04T01:58:56;10.77;;;5.00;;
18503;SDS011;9381;54.244;10.074;2022-11-04T02:03:58;7.67;;;5.53;;
18503;SDS011;9381;54.244;10.074;2022-11-04T02:09:18;12.47;;;5.53;;
18503;SDS011;9381;54.244;10.074;2022-11-04T02:14:20;7.13;;;5.57;;
18503;SDS011;9381;54.244;10.074;2022-11-04T02:19:44;10.47;;;5.60;;
18503;SDS011;9381;54.244;10.074;2022-11-04T02:24:59;8.97;;;5.20;;
18503;SDS011;9381;54.244;10.074;2022-11-04T02:30:16;8.83;;;5.53;;
18503;SDS011;9381;54.244;10.074;2022-11-04T02:46:03;11.03;;;6.03;;
18503;SDS011;9381;54.244;10.074;2022-11-04T02:56:21;9.80;;;6.10;;
18503;SDS011;9381;54.244;10.074;2022-11-04T03:01:23;10.60;;;6.67;;
18503;SDS011;9381;54.244;10.074;2022-11-04T03:06:26;11.03;;;6.77;;
18503;SDS011;9381;54.244;10.074;2022-11-04T03:11:28;16.67;;;7.00;;
18503;SDS011;9381;54.244;10.074;2022-11-04T03:16:32;11.97;;;7.13;;
18503;SDS011;9381;54.244;10.074;2022-11-04T03:21:52;10.03;;;6.87;;
18503;SDS011;9381;54.244;10.074;2022-11-04T03:26:58;16.13;;;8.13;;
18503;SDS011;9381;54.244;10.074;2022-11-04T03:37:08;8.10;;;6.77;;
18503;SDS011;9381;54.244;10.074;2022-11-04T03:42:10;12.90;;;7.33;;
18503;SDS011;9381;54.244;10.074;2022-11-04T03:47:22;11.17;;;7.17;;
18503;SDS011;9381;54.244;10.074;2022-11-04T03:52:24;10.73;;;6.63;;
18503;SDS011;9381;54.244;10.074;2022-11-04T03:57:36;10.82;;;7.05;;
18503;SDS011;9381;54.244;10.074;2022-11-04T04:08:11;11.90;;;7.47;;
18503;SDS011;9381;54.244;10.074;2022-11-04T04:18:49;10.20;;;6.67;;
18503;SDS011;9381;54.244;10.074;2022-11-04T04:24:06;12.60;;;7.80;;
18503;SDS011;9381;54.244;10.074;2022-11-04T04:29:28;11.23;;;7.70;;
18503;SDS011;9381;54.244;10.074;2022-11-04T04:34:29;13.70;;;8.00;;
18503;SDS011;9381;54.244;10.074;2022-11-04T04:39:34;14.47;;;8.70;;
18503;SDS011;9381;54.244;10.074;2022-11-04T04:44:55;12.87;;;7.53;;
18503;SDS011;9381;54.244;10.074;2022-11-04T04:50:00;11.90;;;8.27;;
18503;SDS011;9381;54.244;10.074;2022-11-04T04:55:01;14.77;;;8.97;;
18503;SDS011;9381;54.244;10.074;2022-11-04T05:00:02;11.50;;;8.88;;
18503;SDS011;9381;54.244;10.074;2022-11-04T05:05:03;14.77;;;9.23;;
18503;SDS011;9381;54.244;10.074;2022-11-04T05:10:04;17.40;;;9.60;;
18503;SDS011;9381;54.244;10.074;2022-11-04T05:15:06;12.37;;;9.63;;
18503;SDS011;9381;54.244;10.074;2022-11-04T05:20:08;13.33;;;10.00;;
18503;SDS011;9381;54.244;10.074;2022-11-04T05:25:09;13.33;;;9.60;;
18503;SDS011;9381;54.244;10.074;2022-11-04T05:30:09;13.55;;;9.82;;
18503;SDS011;9381;54.244;10.074;2022-11-04T05:35:10;12.73;;;9.80;;
18503;SDS011;9381;54.244;10.074;2022-11-04T05:40:10;11.10;;;8.73;;
18503;SDS011;9381;54.244;10.074;2022-11-04T05:45:11;12.63;;;8.90;;
18503;SDS011;9381;54.244;10.074;2022-11-04T05:50:11;14.32;;;9.32;;
18503;SDS011;9381;54.244;10.074;2022-11-04T05:55:11;12.02;;;8.38;;
18503;SDS011;9381;54.244;10.074;2022-11-04T06:00:12;9.00;;;8.17;;
18503;SDS011;9381;54.244;10.074;2022-11-04T06:05:13;9.40;;;7.53;;
18503;SDS011;9381;54.244;10.074;2022-11-04T06:10:13;10.40;;;7.67;;
18503;SDS011;9381;54.244;10.074;2022-11-04T06:15:14;6.83;;;6.10;;
18503;SDS011;9381;54.244;10.074;2022-11-04T06:20:14;7.90;;;5.57;;
18503;SDS011;9381;54.244;10.074;2022-11-04T06:25:15;5.53;;;4.87;;
18503;SDS011;9381;54.244;10.074;2022-11-04T06:30:15;3.30;;;2.90;;
18503;SDS011;9381;54.244;10.074;2022-11-04T06:35:16;3.17;;;2.50;;
18503;SDS011;9381;54.244;10.074;2022-11-04T06:40:16;2.38;;;1.65;;
18503;SDS011;9381;54.244;10.074;2022-11-04T06:45:17;2.45;;;1.40;;
18503;SDS011;9381;54.244;10.074;2022-11-04T06:50:17;2.83;;;1.40;;
18503;SDS011;9381;54.244;10.074;2022-11-04T06:55:17;4.10;;;1.63;;
18503;SDS011;9381;54.244;10.074;2022-11-04T07:00:18;2.75;;;1.67;;
18503;SDS011;9381;54.244;10.074;2022-11-04T07:05:18;3.20;;;1.50;;
18503;SDS011;9381;54.244;10.074;2022-11-04T07:10:18;5.53;;;1.50;;
18503;SDS011;9381;54.244;10.074;2022-11-04T07:15:19;3.05;;;1.77;;
18503;SDS011;9381;54.244;10.074;2022-11-04T07:20:19;1.53;;;1.43;;
18503;SDS011;9381;54.244;10.074;2022-11-04T07:25:19;3.30;;;1.30;;
18503;SDS011;9381;54.244;10.074;2022-11-04T07:30:20;3.67;;;2.03;;
18503;SDS011;9381;54.244;10.074;2022-11-04T07:35:20;2.90;;;1.33;;
18503;SDS011;9381;54.244;10.074;2022-11-04T07:40:21;2.40;;;1.53;;
18503;SDS011;9381;54.244;10.074;2022-11-04T07:45:21;2.57;;;1.37;;
18503;SDS011;9381;54.244;10.074;2022-11-04T07:50:21;4.07;;;1.73;;
18503;SDS011;9381;54.244;10.074;2022-11-04T07:55:22;2.57;;;1.57;;
18503;SDS011;9381;54.244;10.074;2022-11-04T08:00:22;3.43;;;1.40;;
18503;SDS011;9381;54.244;10.074;2022-11-04T08:05:23;2.73;;;1.40;;
18503;SDS011;9381;54.244;10.074;2022-11-04T08:10:23;3.57;;;1.57;;
18503;SDS011;9381;54.244;10.074;2022-11-04T08:15:24;1.73;;;1.40;;
18503;SDS011;9381;54.244;10.074;2022-11-04T08:20:25;2.70;;;1.80;;
18503;SDS011;9381;54.244;10.074;2022-11-04T08:25:25;2.10;;;1.83;;
18503;SDS011;9381;54.244;10.074;2022-11-04T08:30:25;3.28;;;1.83;;
18503;SDS011;9381;54.244;10.074;2022-11-04T08:35:26;3.93;;;1.77;;
18503;SDS011;9381;54.244;10.074;2022-11-04T08:40:26;6.40;;;1.90;;
18503;SDS011;9381;54.244;10.074;2022-11-04T08:45:26;3.63;;;2.03;;
18503;SDS011;9381;54.244;10.074;2022-11-04T08:50:28;4.20;;;2.53;;
18503;SDS011;9381;54.244;10.074;2022-11-04T08:55:29;4.20;;;2.53;;
18503;SDS011;9381;54.244;10.074;2022-11-04T09:00:30;4.73;;;2.50;;
18503;SDS011;9381;54.244;10.074;2022-11-04T09:05:32;4.53;;;2.40;;
18503;SDS011;9381;54.244;10.074;2022-11-04T09:10:32;5.87;;;3.57;;
18503;SDS011;9381;54.244;10.074;2022-11-04T09:15:33;5.57;;;3.80;;
18503;SDS011;9381;54.244;10.074;2022-11-04T09:20:33;2.90;;;2.60;;
18503;SDS011;9381;54.244;10.074;2022-11-04T09:25:37;4.23;;;2.47;;
18503;SDS011;9381;54.244;10.074;2022-11-04T09:30:37;5.83;;;2.20;;
18503;SDS011;9381;54.244;10.074;2022-11-04T09:35:38;4.22;;;2.47;;
18503;SDS011;9381;54.244;10.074;2022-11-04T09:40:38;3.40;;;2.10;;
18503;SDS011;9381;54.244;10.074;2022-11-04T09:45:39;3.45;;;2.20;;
18503;SDS011;9381;54.244;10.074;2022-11-04T09:50:49;3.13;;;2.10;;
18503;SDS011;9381;54.244;10.074;2022-11-04T09:55:53;3.47;;;2.00;;
18503;SDS011;9381;54.244;10.074;2022-11-04T10:00:59;2.17;;;1.97;;
18503;SDS011;9381;54.244;10.074;2022-11-04T10:11:23;3.97;;;1.90;;
18503;SDS011;9381;54.244;10.074;2022-11-04T10:27:25;2.63;;;1.30;;
18503;SDS011;9381;54.244;10.074;2022-11-04T10:32:38;1.73;;;1.20;;
18503;SDS011;9381;54.244;10.074;2022-11-04T10:37:46;2.03;;;1.20;;
18503;SDS011;9381;54.244;10.074;2022-11-04T10:42:51;4.83;;;1.40;;
18503;SDS011;9381;54.244;10.074;2022-11-04T10:47:55;2.73;;;1.50;;
18503;SDS011;9381;54.244;10.074;2022-11-04T10:53:18;2.90;;;1.37;;
18503;SDS011;9381;54.244;10.074;2022-11-04T10:58:22;2.27;;;1.13;;
18503;SDS011;9381;54.244;10.074;2022-11-04T11:03:33;3.63;;;1.23;;
18503;SDS011;9381;54.244;10.074;2022-11-04T11:08:34;6.17;;;1.37;;
18503;SDS011;9381;54.244;10.074;2022-11-04T11:13:37;2.33;;;1.30;;
18503;SDS011;9381;54.244;10.074;2022-11-04T11:18:40;3.53;;;1.00;;
18503;SDS011;9381;54.244;10.074;2022-11-04T11:23:42;3.37;;;1.00;;
18503;SDS011;9381;54.244;10.074;2022-11-04T11:28:55;4.53;;;1.30;;
18503;SDS011;9381;54.244;10.074;2022-11-04T11:34:03;3.23;;;1.57;;
18503;SDS011;9381;54.244;10.074;2022-11-04T11:39:26;4.03;;;1.50;;
18503;SDS011;9381;54.244;10.074;2022-11-04T11:44:31;3.30;;;1.20;;
18503;SDS011;9381;54.244;10.074;2022-11-04T11:49:39;2.90;;;1.00;;
18503;SDS011;9381;54.244;10.074;2022-11-04T11:54:39;3.13;;;1.30;;
18503;SDS011;9381;54.244;10.074;2022-11-04T11:59:45;3.90;;;1.40;;
18503;SDS011;9381;54.244;10.074;2022-11-04T12:04:50;3.83;;;1.30;;
18503;SDS011;9381;54.244;10.074;2022-11-04T12:15:16;4.83;;;1.50;;
18503;SDS011;9381;54.244;10.074;2022-11-04T12:46:48;3.97;;;1.90;;
18503;SDS011;9381;54.244;10.074;2022-11-04T12:52:37;5.27;;;1.80;;
18503;SDS011;9381;54.244;10.074;2022-11-04T12:58:07;8.43;;;1.77;;
18503;SDS011;9381;54.244;10.074;2022-11-04T13:03:21;4.53;;;1.50;;
18503;SDS011;9381;54.244;10.074;2022-11-04T13:08:35;3.80;;;1.30;;
18503;SDS011;9381;54.244;10.074;2022-11-04T13:13:41;6.17;;;1.67;;
18503;SDS011;9381;54.244;10.074;2022-11-04T13:18:42;4.38;;;1.98;;
18503;SDS011;9381;54.244;10.074;2022-11-04T13:23:56;5.70;;;1.40;;
18503;SDS011;9381;54.244;10.074;2022-11-04T13:29:05;7.33;;;1.60;;
18503;SDS011;9381;54.244;10.074;2022-11-04T13:34:21;4.77;;;1.40;;
18503;SDS011;9381;54.244;10.074;2022-11-04T13:39:46;4.23;;;1.40;;
18503;SDS011;9381;54.244;10.074;2022-11-04T13:44:54;4.33;;;1.50;;
18503;SDS011;9381;54.244;10.074;2022-11-04T13:49:57;4.00;;;1.30;;
18503;SDS011;9381;54.244;10.074;2022-11-04T13:55:04;4.65;;;1.35;;
18503;SDS011;9381;54.244;10.074;2022-11-04T14:00:18;5.73;;;1.90;;
18503;SDS011;9381;54.244;10.074;2022-11-04T14:10:40;6.87;;;1.80;;
18503;SDS011;9381;54.244;10.074;2022-11-04T14:16:03;7.13;;;1.70;;
18503;SDS011;9381;54.244;10.074;2022-11-04T14:21:05;9.57;;;1.90;;
18503;SDS011;9381;54.244;10.074;2022-11-04T14:26:10;7.50;;;1.53;;
18503;SDS011;9381;54.244;10.074;2022-11-04T14:31:13;6.90;;;1.70;;
18503;SDS011;9381;54.244;10.074;2022-11-04T14:46:41;5.73;;;1.43;;
18503;SDS011;9381;54.244;10.074;2022-11-04T14:51:44;6.57;;;1.37;;
18503;SDS011;9381;54.244;10.074;2022-11-04T14:56:46;5.17;;;1.67;;
18503;SDS011;9381;54.244;10.074;2022-11-04T15:01:47;8.80;;;1.60;;
18503;SDS011;9381;54.244;10.074;2022-11-04T15:06:54;3.67;;;1.70;;
18503;SDS011;9381;54.244;10.074;2022-11-04T15:17:30;4.10;;;1.60;;
18503;SDS011;9381;54.244;10.074;2022-11-04T15:22:32;8.90;;;2.20;;
18503;SDS011;9381;54.244;10.074;2022-11-04T15:27:33;8.67;;;1.70;;
18503;SDS011;9381;54.244;10.074;2022-11-04T15:32:33;6.40;;;2.03;;
18503;SDS011;9381;54.244;10.074;2022-11-04T15:37:33;5.97;;;2.10;;
18503;SDS011;9381;54.244;10.074;2022-11-04T15:42:35;10.67;;;2.80;;
18503;SDS011;9381;54.244;10.074;2022-11-04T15:47:35;7.37;;;3.00;;
18503;SDS011;9381;54.244;10.074;2022-11-04T15:52:36;43.78;;;21.70;;
18503;SDS011;9381;54.244;10.074;2022-11-04T15:57:39;36.63;;;16.33;;
18503;SDS011;9381;54.244;10.074;2022-11-04T16:02:47;8.00;;;3.83;;
18503;SDS011;9381;54.244;10.074;2022-11-04T16:07:50;8.33;;;2.00;;
18503;SDS011;9381;54.244;10.074;2022-11-04T16:12:53;8.57;;;4.10;;
18503;SDS011;9381;54.244;10.074;2022-11-04T16:17:59;8.70;;;2.17;;
18503;SDS011;9381;54.244;10.074;2022-11-04T16:23:01;5.87;;;2.20;;
18503;SDS011;9381;54.244;10.074;2022-11-04T16:28:02;8.93;;;2.30;;
18503;SDS011;9381;54.244;10.074;2022-11-04T16:33:07;8.43;;;4.30;;
18503;SDS011;9381;54.244;10.074;2022-11-04T16:38:09;10.43;;;4.20;;
18503;SDS011;9381;54.244;10.074;2022-11-04T16:43:09;10.15;;;3.58;;
18503;SDS011;9381;54.244;10.074;2022-11-04T16:48:11;10.18;;;3.42;;
18503;SDS011;9381;54.244;10.074;2022-11-04T16:53:15;6.80;;;3.30;;
18503;SDS011;9381;54.244;10.074;2022-11-04T16:58:16;6.97;;;3.00;;
18503;SDS011;9381;54.244;10.074;2022-11-04T17:03:18;8.27;;;3.87;;
18503;SDS011;9381;54.244;10.074;2022-11-04T17:08:22;8.70;;;4.30;;
18503;SDS011;9381;54.244;10.074;2022-11-04T17:13:23;13.73;;;7.40;;
18503;SDS011;9381;54.244;10.074;2022-11-04T17:18:23;16.67;;;8.70;;
18503;SDS011;9381;54.244;10.074;2022-11-04T17:23:24;15.73;;;7.70;;
18503;SDS011;9381;54.244;10.074;2022-11-04T17:28:24;11.57;;;5.07;;
18503;SDS011;9381;54.244;10.074;2022-11-04T17:33:26;10.40;;;6.00;;
18503;SDS011;9381;54.244;10.074;2022-11-04T17:38:26;8.13;;;5.07;;
18503;SDS011;9381;54.244;10.074;2022-11-04T17:43:26;9.03;;;5.37;;
18503;SDS011;9381;54.244;10.074;2022-11-04T17:48:45;8.73;;;4.90;;
18503;SDS011;9381;54.244;10.074;2022-11-04T17:53:46;11.03;;;5.40;;
18503;SDS011;9381;54.244;10.074;2022-11-04T17:58:47;6.27;;;4.13;;
18503;SDS011;9381;54.244;10.074;2022-11-04T18:03:51;13.07;;;5.30;;
18503;SDS011;9381;54.244;10.074;2022-11-04T18:08:53;10.17;;;4.70;;
18503;SDS011;9381;54.244;10.074;2022-11-04T18:13:54;11.03;;;5.33;;
18503;SDS011;9381;54.244;10.074;2022-11-04T18:18:55;14.00;;;6.05;;
18503;SDS011;9381;54.244;10.074;2022-11-04T18:23:57;12.67;;;7.20;;
18503;SDS011;9381;54.244;10.074;2022-11-04T18:28:57;16.03;;;7.53;;
18503;SDS011;9381;54.244;10.074;2022-11-04T18:33:58;14.27;;;8.00;;
18503;SDS011;9381;54.244;10.074;2022-11-04T18:39:00;14.20;;;7.53;;
18503;SDS011;9381;54.244;10.074;2022-11-04T18:44:01;12.20;;;6.20;;
18503;SDS011;9381;54.244;10.074;2022-11-04T18:49:02;16.67;;;7.77;;
18503;SDS011;9381;54.244;10.074;2022-11-04T18:54:03;10.83;;;5.97;;
18503;SDS011;9381;54.244;10.074;2022-11-04T18:59:06;9.47;;;5.40;;
18503;SDS011;9381;54.244;10.074;2022-11-04T19:04:08;11.83;;;5.73;;
18503;SDS011;9381;54.244;10.074;2022-11-04T19:09:10;18.50;;;7.27;;
18503;SDS011;9381;54.244;10.074;2022-11-04T19:14:13;15.23;;;6.50;;
18503;SDS011;9381;54.244;10.074;2022-11-04T19:19:15;12.97;;;6.57;;
18503;SDS011;9381;54.244;10.074;2022-11-04T19:24:15;11.83;;;6.47;;
18503;SDS011;9381;54.244;10.074;2022-11-04T19:29:16;10.50;;;6.10;;
18503;SDS011;9381;54.244;10.074;2022-11-04T19:34:16;11.80;;;5.53;;
18503;SDS011;9381;54.244;10.074;2022-11-04T19:39:16;13.30;;;5.40;;
18503;SDS011;9381;54.244;10.074;2022-11-04T19:44:17;14.87;;;5.00;;
18503;SDS011;9381;54.244;10.074;2022-11-04T19:49:19;12.27;;;4.20;;
18503;SDS011;9381;54.244;10.074;2022-11-04T19:54:19;9.67;;;4.63;;
18503;SDS011;9381;54.244;10.074;2022-11-04T19:59:19;17.10;;;4.70;;
18503;SDS011;9381;54.244;10.074;2022-11-04T20:04:20;12.20;;;4.50;;
18503;SDS011;9381;54.244;10.074;2022-11-04T20:09:20;15.33;;;10.97;;
18503;SDS011;9381;54.244;10.074;2022-11-04T20:14:21;20.33;;;13.17;;
18503;SDS011;9381;54.244;10.074;2022-11-04T20:19:22;13.07;;;9.67;;
18503;SDS011;9381;54.244;10.074;2022-11-04T20:24:23;12.33;;;7.53;;
18503;SDS011;9381;54.244;10.074;2022-11-04T20:29:24;12.43;;;5.27;;
18503;SDS011;9381;54.244;10.074;2022-11-04T20:34:24;12.80;;;4.70;;
18503;SDS011;9381;54.244;10.074;2022-11-04T20:39:25;18.30;;;4.93;;
18503;SDS011;9381;54.244;10.074;2022-11-04T20:44:25;14.57;;;5.13;;
18503;SDS011;9381;54.244;10.074;2022-11-04T20:49:25;12.65;;;4.53;;
18503;SDS011;9381;54.244;10.074;2022-11-04T20:54:27;12.67;;;5.90;;
18503;SDS011;9381;54.244;10.074;2022-11-04T20:59:27;12.00;;;5.63;;
18503;SDS011;9381;54.244;10.074;2022-11-04T21:04:28;13.25;;;6.00;;
18503;SDS011;9381;54.244;10.074;2022-11-04T21:09:28;11.45;;;5.55;;
18503;SDS011;9381;54.244;10.074;2022-11-04T21:14:28;13.30;;;5.47;;
18503;SDS011;9381;54.244;10.074;2022-11-04T21:19:33;17.07;;;5.80;;
18503;SDS011;9381;54.244;10.074;2022-11-04T21:24:33;10.40;;;6.18;;
18503;SDS011;9381;54.244;10.074;2022-11-04T21:29:34;13.87;;;6.37;;
18503;SDS011;9381;54.244;10.074;2022-11-04T21:34:35;12.50;;;6.77;;
18503;SDS011;9381;54.244;10.074;2022-11-04T21:39:36;18.93;;;8.37;;
18503;SDS011;9381;54.244;10.074;2022-11-04T21:44:36;16.00;;;7.17;;
18503;SDS011;9381;54.244;10.074;2022-11-04T21:49:37;10.40;;;6.20;;
18503;SDS011;9381;54.244;10.074;2022-11-04T21:54:37;15.00;;;7.45;;
18503;SDS011;9381;54.244;10.074;2022-11-04T21:59:37;12.45;;;6.32;;
18503;SDS011;9381;54.244;10.074;2022-11-04T22:04:38;13.80;;;5.30;;
18503;SDS011;9381;54.244;10.074;2022-11-04T22:09:38;13.70;;;6.87;;
18503;SDS011;9381;54.244;10.074;2022-11-04T22:14:38;13.18;;;5.82;;
18503;SDS011;9381;54.244;10.074;2022-11-04T22:19:39;9.85;;;5.05;;
18503;SDS011;9381;54.244;10.074;2022-11-04T22:24:39;11.38;;;5.30;;
18503;SDS011;9381;54.244;10.074;2022-11-04T22:29:39;13.90;;;7.05;;
18503;SDS011;9381;54.244;10.074;2022-11-04T22:34:40;10.33;;;6.20;;
18503;SDS011;9381;54.244;10.074;2022-11-04T22:39:40;10.37;;;6.57;;
18503;SDS011;9381;54.244;10.074;2022-11-04T22:44:40;13.47;;;6.23;;
18503;SDS011;9381;54.244;10.074;2022-11-04T22:49:40;13.32;;;6.95;;
18503;SDS011;9381;54.244;10.074;2022-11-04T22:54:41;12.07;;;6.57;;
18503;SDS011;9381;54.244;10.074;2022-11-04T22:59:41;11.35;;;5.82;;
18503;SDS011;9381;54.244;10.074;2022-11-04T23:04:41;9.68;;;6.13;;
18503;SDS011;9381;54.244;10.074;2022-11-04T23:09:43;13.33;;;6.13;;
18503;SDS011;9381;54.244;10.074;2022-11-04T23:15:03;11.77;;;5.73;;
18503;SDS011;9381;54.244;10.074;2022-11-04T23:20:22;11.07;;;5.50;;
18503;SDS011;9381;54.244;10.074;2022-11-04T23:25:26;14.77;;;6.33;;
18503;SDS011;9381;54.244;10.074;2022-11-04T23:30:28;11.90;;;5.60;;
18503;SDS011;9381;54.244;10.074;2022-11-04T23:35:32;14.87;;;6.27;;
18503;SDS011;9381;54.244;10.074;2022-11-04T23:40:54;8.57;;;4.93;;
18503;SDS011;9381;54.244;10.074;2022-11-04T23:46:15;14.73;;;5.50;;
18503;SDS011;9381;54.244;10.074;2022-11-04T23:51:34;15.70;;;5.50;;
18503;SDS011;9381;54.244;10.074;2022-11-04T23:56:53;8.40;;;4.70;;
